Time,TemperatureF,DewpointF,PressureIn,WindDirection,WindDirectionDegrees,WindSpeedMPH,WindSpeedGustMPH,Humidity,HourlyPrecipIn,Conditions,Clouds,dailyrainin,SoftwareType,DateUTC
2013-04-06 00:01:00,31.3,20.0,29.94,NNW,331,6.0,17.0,63,0.00,,,0.00,weatherlink.com 1.10,2013-04-06 04:01:00,
2013-04-06 00:16:00,31.0,20.0,29.94,NW,305,5.0,17.0,63,0.00,,,0.00,weatherlink.com 1.10,2013-04-06 04:16:00,
2013-04-06 00:46:00,30.1,19.0,29.95,NNW,335,3.0,13.0,63,0.00,,,0.00,weatherlink.com 1.10,2013-04-06 04:46:00,
2013-04-06 01:02:00,30.0,19.0,29.96,NW,313,7.0,16.0,63,0.00,,,0.00,weatherlink.com 1.10,2013-04-06 05:02:00,
2013-04-06 01:17:00,29.9,19.0,29.96,NW,313,5.0,15.0,63,0.00,,,0.00,weatherlink.com 1.10,2013-04-06 05:17:00,
2013-04-06 01:32:00,29.7,19.0,29.96,NNE,15,8.0,11.0,64,0.00,,,0.00,weatherlink.com 1.10,2013-04-06 05:32:00,
2013-04-06 01:47:00,29.6,19.0,29.97,North,350,6.0,16.0,65,0.00,,,0.00,weatherlink.com 1.10,2013-04-06 05:47:00,
2013-04-06 02:02:00,29.6,19.0,29.97,NNE,26,10.0,19.0,65,0.00,,,0.00,weatherlink.com 1.10,2013-04-06 06:02:00,
2013-04-06 02:17:00,29.5,19.0,29.97,NNW,348,3.0,17.0,65,0.00,,,0.00,weatherlink.com 1.10,2013-04-06 06:17:00,
2013-04-06 02:32:00,29.5,19.0,29.98,North,5,12.0,17.0,66,0.00,,,0.00,weatherlink.com 1.10,2013-04-06 06:32:00,
2013-04-06 02:47:00,29.5,20.0,29.99,NW,325,8.0,15.0,69,0.00,,,0.00,weatherlink.com 1.10,2013-04-06 06:47:00,
2013-04-06 03:02:00,27.8,22.0,30.00,NW,317,5.0,15.0,79,0.00,,,0.00,weatherlink.com 1.10,2013-04-06 07:02:00,
2013-04-06 03:17:00,27.5,21.0,30.01,WNW,288,13.0,17.0,76,0.00,,,0.00,weatherlink.com 1.10,2013-04-06 07:17:00,
2013-04-06 03:32:00,27.3,19.0,30.02,North,355,9.0,18.0,72,0.00,,,0.00,weatherlink.com 1.10,2013-04-06 07:32:00,
2013-04-06 03:47:00,27.1,19.0,30.04,NNE,19,7.0,15.0,71,0.00,,,0.00,weatherlink.com 1.10,2013-04-06 07:47:00,
2013-04-06 04:02:00,26.9,18.0,30.05,NNW,336,13.0,16.0,69,0.00,,,0.00,weatherlink.com 1.10,2013-04-06 08:02:00,
2013-04-06 04:17:00,26.3,16.0,30.06,NNW,345,8.0,19.0,64,0.00,,,0.00,weatherlink.com 1.10,2013-04-06 08:17:00,
2013-04-06 04:32:00,25.9,14.0,30.07,NW,313,6.0,15.0,62,0.00,,,0.00,weatherlink.com 1.10,2013-04-06 08:32:00,
2013-04-06 04:47:00,25.7,13.0,30.07,NNW,334,6.0,15.0,60,0.00,,,0.00,weatherlink.com 1.10,2013-04-06 08:47:00,
2013-04-06 05:17:00,25.1,12.0,30.09,NW,325,4.0,17.0,59,0.00,,,0.00,weatherlink.com 1.10,2013-04-06 09:17:00,
2013-04-06 05:32:00,24.9,12.0,30.10,NW,315,3.0,14.0,59,0.00,,,0.00,weatherlink.com 1.10,2013-04-06 09:32:00,
2013-04-06 06:18:00,24.3,12.0,30.13,NW,322,2.0,17.0,60,0.00,,,0.00,weatherlink.com 1.10,2013-04-06 10:18:00,
2013-04-06 06:33:00,24.0,12.0,30.13,NW,326,6.0,21.0,61,0.00,,,0.00,weatherlink.com 1.10,2013-04-06 10:33:00,
2013-04-06 06:48:00,23.7,12.0,30.14,North,360,5.0,14.0,62,0.00,,,0.00,weatherlink.com 1.10,2013-04-06 10:48:00,
2013-04-06 07:03:00,23.7,11.0,30.15,NNW,331,10.0,15.0,58,0.00,,,0.00,weatherlink.com 1.10,2013-04-06 11:03:00,
2013-04-06 07:18:00,23.9,10.0,30.17,North,5,4.0,18.0,55,0.00,,,0.00,weatherlink.com 1.10,2013-04-06 11:18:00,
2013-04-06 07:33:00,24.2,9.0,30.18,North,5,8.0,15.0,53,0.00,,,0.00,weatherlink.com 1.10,2013-04-06 11:33:00,
2013-04-06 07:48:00,24.4,8.0,30.18,SW,227,5.0,17.0,50,0.00,,,0.00,weatherlink.com 1.10,2013-04-06 11:48:00,
2013-04-06 08:03:00,24.9,6.0,30.18,NNW,337,8.0,13.0,45,0.00,,,0.00,weatherlink.com 1.10,2013-04-06 12:03:00,
2013-04-06 08:18:00,25.1,5.0,30.19,NNW,329,10.0,18.0,42,0.00,,,0.00,weatherlink.com 1.10,2013-04-06 12:18:00,
2013-04-06 08:33:00,25.4,5.0,30.20,North,11,6.0,19.0,41,0.00,,,0.00,weatherlink.com 1.10,2013-04-06 12:33:00,
2013-04-06 08:48:00,25.8,4.0,30.20,NW,326,14.0,20.0,39,0.00,,,0.00,weatherlink.com 1.10,2013-04-06 12:48:00,
2013-04-06 09:03:00,26.4,4.0,30.21,West,276,12.0,17.0,39,0.00,,,0.00,weatherlink.com 1.10,2013-04-06 13:03:00,
2013-04-06 09:18:00,26.9,4.0,30.21,West,279,15.0,19.0,37,0.00,,,0.00,weatherlink.com 1.10,2013-04-06 13:18:00,
2013-04-06 09:33:00,27.3,3.0,30.22,NW,317,5.0,14.0,36,0.00,,,0.00,weatherlink.com 1.10,2013-04-06 13:33:00,
2013-04-06 09:48:00,28.0,4.0,30.22,North,355,4.0,19.0,36,0.00,,,0.00,weatherlink.com 1.10,2013-04-06 13:48:00,
2013-04-06 10:33:00,30.1,2.0,30.24,North,5,7.0,16.0,30,0.00,,,0.00,weatherlink.com 1.10,2013-04-06 14:33:00,
2013-04-06 11:04:00,31.7,1.0,30.23,SSE,164,5.0,20.0,27,0.00,,,0.00,weatherlink.com 1.10,2013-04-06 15:04:00,
2013-04-06 11:34:00,32.6,-1.0,30.25,NE,41,9.0,21.0,24,0.00,,,0.00,weatherlink.com 1.10,2013-04-06 15:34:00,
2013-04-06 11:49:00,33.8,2.0,30.24,NNE,14,9.0,15.0,26,0.00,,,0.00,weatherlink.com 1.10,2013-04-06 15:49:00,
2013-04-06 12:19:00,35.7,3.0,30.24,ENE,61,1.0,16.0,25,0.00,,,0.00,weatherlink.com 1.10,2013-04-06 16:19:00,
2013-04-06 12:34:00,36.1,2.0,30.23,NW,317,3.0,15.0,24,0.00,,,0.00,weatherlink.com 1.10,2013-04-06 16:34:00,
2013-04-06 12:49:00,37.0,4.0,30.23,WNW,287,4.0,13.0,25,0.00,,,0.00,weatherlink.com 1.10,2013-04-06 16:49:00,
2013-04-06 13:04:00,37.7,5.0,30.24,West,281,9.0,15.0,25,0.00,,,0.00,weatherlink.com 1.10,2013-04-06 17:04:00,
2013-04-06 13:20:00,37.9,5.0,30.23,West,276,1.0,12.0,25,0.00,,,0.00,weatherlink.com 1.10,2013-04-06 17:20:00,
2013-04-06 13:34:00,39.1,5.0,30.24,NW,308,6.0,15.0,24,0.00,,,0.00,weatherlink.com 1.10,2013-04-06 17:34:00,
2013-04-06 13:50:00,38.9,5.0,30.24,WNW,286,9.0,14.0,24,0.00,,,0.00,weatherlink.com 1.10,2013-04-06 17:50:00,
2013-04-06 14:04:00,39.8,6.0,30.24,WSW,241,2.0,10.0,24,0.00,,,0.00,weatherlink.com 1.10,2013-04-06 18:04:00,
2013-04-06 14:19:00,40.5,6.0,30.23,West,277,8.0,10.0,24,0.00,,,0.00,weatherlink.com 1.10,2013-04-06 18:19:00,
2013-04-06 14:34:00,41.5,6.0,30.23,West,268,6.0,9.0,23,0.00,,,0.00,weatherlink.com 1.10,2013-04-06 18:34:00,
2013-04-06 14:49:00,41.9,5.0,30.23,WNW,288,3.0,11.0,22,0.00,,,0.00,weatherlink.com 1.10,2013-04-06 18:49:00,
2013-04-06 15:05:00,41.5,3.0,30.23,East,86,3.0,11.0,20,0.00,,,0.00,weatherlink.com 1.10,2013-04-06 19:05:00,
2013-04-06 15:20:00,42.7,7.0,30.23,WNW,302,4.0,8.0,23,0.00,,,0.00,weatherlink.com 1.10,2013-04-06 19:20:00,
2013-04-06 15:35:00,43.1,5.0,30.23,SSE,167,1.0,8.0,21,0.00,,,0.00,weatherlink.com 1.10,2013-04-06 19:35:00,
2013-04-06 15:50:00,42.6,7.0,30.22,WNW,300,1.0,8.0,23,0.00,,,0.00,weatherlink.com 1.10,2013-04-06 19:50:00,
2013-04-06 16:05:00,44.2,7.0,30.22,South,179,2.0,10.0,22,0.00,,,0.00,weatherlink.com 1.10,2013-04-06 20:05:00,
2013-04-06 16:20:00,44.1,4.0,30.22,NNE,15,4.0,8.0,19,0.00,,,0.00,weatherlink.com 1.10,2013-04-06 20:20:00,
2013-04-06 16:35:00,44.4,7.0,30.22,North,5,2.0,9.0,21,0.00,,,0.00,weatherlink.com 1.10,2013-04-06 20:35:00,
2013-04-06 16:50:00,45.1,4.0,30.22,NNW,344,5.0,8.0,18,0.00,,,0.00,weatherlink.com 1.10,2013-04-06 20:50:00,
2013-04-06 17:05:00,44.9,4.0,30.22,NW,311,5.0,7.0,18,0.00,,,0.00,weatherlink.com 1.10,2013-04-06 21:05:00,
2013-04-06 17:20:00,46.1,5.0,30.22,SW,219,2.0,6.0,18,0.00,,,0.00,weatherlink.com 1.10,2013-04-06 21:20:00,
2013-04-06 17:35:00,45.6,4.0,30.23,SW,227,1.0,7.0,18,0.00,,,0.00,weatherlink.com 1.10,2013-04-06 21:35:00,
2013-04-06 17:50:00,46.5,5.0,30.23,NNW,333,3.0,6.0,18,0.00,,,0.00,weatherlink.com 1.10,2013-04-06 21:50:00,
2013-04-06 18:05:00,46.3,5.0,30.23,NNE,26,1.0,6.0,18,0.00,,,0.00,weatherlink.com 1.10,2013-04-06 22:05:00,
2013-04-06 18:20:00,46.0,4.0,30.24,NW,317,1.0,5.0,18,0.00,,,0.00,weatherlink.com 1.10,2013-04-06 22:20:00,
2013-04-06 18:36:00,45.6,10.0,30.24,ENE,63,2.0,4.0,23,0.00,,,0.00,weatherlink.com 1.10,2013-04-06 22:36:00,
2013-04-06 18:51:00,44.0,9.0,30.25,South,175,0.0,4.0,24,0.00,,,0.00,weatherlink.com 1.10,2013-04-06 22:51:00,
2013-04-06 19:06:00,43.0,11.0,30.25,SSW,206,1.0,2.0,27,0.00,,,0.00,weatherlink.com 1.10,2013-04-06 23:06:00,
2013-04-06 19:51:00,37.9,12.0,30.25,SE,140,2.0,2.0,35,0.00,,,0.00,weatherlink.com 1.10,2013-04-06 23:51:00,
2013-04-06 20:06:00,36.2,14.0,30.26,SSE,167,0.0,2.0,41,0.00,,,0.00,weatherlink.com 1.10,2013-04-07 00:06:00,
2013-04-06 20:21:00,34.7,15.0,30.26,South,186,0.0,2.0,45,0.00,,,0.00,weatherlink.com 1.10,2013-04-07 00:21:00,
2013-04-06 20:36:00,33.7,15.0,30.26,SE,134,0.0,2.0,47,0.00,,,0.00,weatherlink.com 1.10,2013-04-07 00:36:00,
2013-04-06 20:51:00,33.2,14.0,30.27,South,169,0.0,1.0,45,0.00,,,0.00,weatherlink.com 1.10,2013-04-07 00:51:00,
2013-04-06 21:06:00,32.8,14.0,30.27,SSE,166,1.0,2.0,47,0.00,,,0.00,weatherlink.com 1.10,2013-04-07 01:06:00,
2013-04-06 21:21:00,31.6,14.0,30.28,SE,142,0.0,2.0,48,0.00,,,0.00,weatherlink.com 1.10,2013-04-07 01:21:00,
2013-04-06 21:37:00,31.5,16.0,30.28,South,172,1.0,2.0,52,0.00,,,0.00,weatherlink.com 1.10,2013-04-07 01:37:00,
2013-04-06 21:52:00,31.3,15.0,30.28,ESE,123,1.0,3.0,52,0.00,,,0.00,weatherlink.com 1.10,2013-04-07 01:52:00,
2013-04-06 22:07:00,31.2,16.0,30.27,ESE,112,0.0,2.0,53,0.00,,,0.00,weatherlink.com 1.10,2013-04-07 02:07:00,
2013-04-06 22:22:00,30.6,16.0,30.27,SSE,149,1.0,3.0,54,0.00,,,0.00,weatherlink.com 1.10,2013-04-07 02:22:00,
2013-04-06 22:37:00,30.5,16.0,30.27,ESE,123,0.0,3.0,56,0.00,,,0.00,weatherlink.com 1.10,2013-04-07 02:37:00,
2013-04-06 22:52:00,30.4,17.0,30.26,SE,126,1.0,3.0,57,0.00,,,0.00,weatherlink.com 1.10,2013-04-07 02:52:00,
2013-04-06 23:07:00,30.1,16.0,30.26,SE,128,0.0,4.0,57,0.00,,,0.00,weatherlink.com 1.10,2013-04-07 03:07:00,
2013-04-06 23:22:00,29.9,17.0,30.26,SSE,158,0.0,2.0,58,0.00,,,0.00,weatherlink.com 1.10,2013-04-07 03:22:00,
2013-04-06 23:37:00,30.1,16.0,30.25,SSW,200,1.0,4.0,55,0.00,,,0.00,weatherlink.com 1.10,2013-04-07 03:37:00,
2013-04-06 23:52:00,30.7,15.0,30.24,SE,140,1.0,5.0,52,0.00,,,0.00,weatherlink.com 1.10,2013-04-07 03:52:00,